sensor_id;sensor_type;location;lat;lon;timestamp;P1;durP1;ratioP1;P2;durP2;ratioP2
15449;SDS011;7826;49.784;9.934;2023-04-25T00:00:35;4.37;;;3.57;;
15449;SDS011;7826;49.784;9.934;2023-04-25T00:03:02;5.70;;;3.00;;
15449;SDS011;7826;49.784;9.934;2023-04-25T00:05:29;5.30;;;3.10;;
15449;SDS011;7826;49.784;9.934;2023-04-25T00:07:57;4.27;;;3.03;;
15449;SDS011;7826;49.784;9.934;2023-04-25T00:10:23;4.03;;;3.10;;
15449;SDS011;7826;49.784;9.934;2023-04-25T00:12:50;6.50;;;3.40;;
15449;SDS011;7826;49.784;9.934;2023-04-25T00:15:17;4.43;;;2.83;;
15449;SDS011;7826;49.784;9.934;2023-04-25T00:17:43;4.10;;;3.33;;
15449;SDS011;7826;49.784;9.934;2023-04-25T00:20:11;5.60;;;3.30;;
15449;SDS011;7826;49.784;9.934;2023-04-25T00:22:39;5.57;;;3.27;;
15449;SDS011;7826;49.784;9.934;2023-04-25T00:25:07;7.73;;;3.47;;
15449;SDS011;7826;49.784;9.934;2023-04-25T00:27:33;7.37;;;3.40;;
15449;SDS011;7826;49.784;9.934;2023-04-25T00:30:00;4.63;;;3.60;;
15449;SDS011;7826;49.784;9.934;2023-04-25T00:32:26;5.50;;;3.13;;
15449;SDS011;7826;49.784;9.934;2023-04-25T00:34:52;4.63;;;2.90;;
15449;SDS011;7826;49.784;9.934;2023-04-25T00:37:19;4.27;;;3.37;;
15449;SDS011;7826;49.784;9.934;2023-04-25T00:39:45;5.57;;;3.10;;
15449;SDS011;7826;49.784;9.934;2023-04-25T00:42:12;3.80;;;3.00;;
15449;SDS011;7826;49.784;9.934;2023-04-25T00:44:40;4.43;;;3.10;;
15449;SDS011;7826;49.784;9.934;2023-04-25T00:47:06;3.20;;;2.87;;
15449;SDS011;7826;49.784;9.934;2023-04-25T00:49:33;4.97;;;3.20;;
15449;SDS011;7826;49.784;9.934;2023-04-25T00:52:00;4.77;;;3.00;;
15449;SDS011;7826;49.784;9.934;2023-04-25T00:54:26;4.50;;;3.10;;
15449;SDS011;7826;49.784;9.934;2023-04-25T00:56:53;5.33;;;2.87;;
15449;SDS011;7826;49.784;9.934;2023-04-25T00:59:19;3.30;;;2.90;;
15449;SDS011;7826;49.784;9.934;2023-04-25T01:01:46;6.07;;;3.20;;
15449;SDS011;7826;49.784;9.934;2023-04-25T01:04:13;5.67;;;3.63;;
15449;SDS011;7826;49.784;9.934;2023-04-25T01:06:40;4.40;;;3.37;;
15449;SDS011;7826;49.784;9.934;2023-04-25T01:09:06;5.60;;;3.80;;
15449;SDS011;7826;49.784;9.934;2023-04-25T01:11:33;5.53;;;3.27;;
15449;SDS011;7826;49.784;9.934;2023-04-25T01:13:59;9.17;;;3.80;;
15449;SDS011;7826;49.784;9.934;2023-04-25T01:16:27;3.87;;;3.20;;
15449;SDS011;7826;49.784;9.934;2023-04-25T01:18:54;4.07;;;3.40;;
15449;SDS011;7826;49.784;9.934;2023-04-25T01:21:25;5.07;;;3.57;;
15449;SDS011;7826;49.784;9.934;2023-04-25T01:23:54;6.80;;;3.43;;
15449;SDS011;7826;49.784;9.934;2023-04-25T01:26:20;5.60;;;3.70;;
15449;SDS011;7826;49.784;9.934;2023-04-25T01:28:48;5.20;;;3.47;;
15449;SDS011;7826;49.784;9.934;2023-04-25T01:31:15;3.73;;;3.30;;
15449;SDS011;7826;49.784;9.934;2023-04-25T01:33:42;5.13;;;3.70;;
15449;SDS011;7826;49.784;9.934;2023-04-25T01:36:10;5.43;;;3.70;;
15449;SDS011;7826;49.784;9.934;2023-04-25T01:38:36;5.20;;;3.90;;
15449;SDS011;7826;49.784;9.934;2023-04-25T01:41:03;4.27;;;3.50;;
15449;SDS011;7826;49.784;9.934;2023-04-25T01:43:30;6.47;;;3.50;;
15449;SDS011;7826;49.784;9.934;2023-04-25T01:45:57;6.10;;;3.60;;
15449;SDS011;7826;49.784;9.934;2023-04-25T01:48:24;5.00;;;3.37;;
15449;SDS011;7826;49.784;9.934;2023-04-25T01:50:50;7.87;;;3.57;;
15449;SDS011;7826;49.784;9.934;2023-04-25T01:53:17;5.77;;;3.87;;
15449;SDS011;7826;49.784;9.934;2023-04-25T01:55:43;5.03;;;3.53;;
15449;SDS011;7826;49.784;9.934;2023-04-25T01:58:10;9.83;;;4.23;;
15449;SDS011;7826;49.784;9.934;2023-04-25T02:00:38;6.70;;;4.23;;
15449;SDS011;7826;49.784;9.934;2023-04-25T02:03:06;6.33;;;4.07;;
15449;SDS011;7826;49.784;9.934;2023-04-25T02:05:34;6.37;;;4.00;;
15449;SDS011;7826;49.784;9.934;2023-04-25T02:08:04;6.57;;;4.10;;
15449;SDS011;7826;49.784;9.934;2023-04-25T02:10:33;8.03;;;4.20;;
15449;SDS011;7826;49.784;9.934;2023-04-25T02:13:00;5.70;;;4.00;;
15449;SDS011;7826;49.784;9.934;2023-04-25T02:15:27;6.43;;;4.10;;
15449;SDS011;7826;49.784;9.934;2023-04-25T02:17:53;7.77;;;4.40;;
15449;SDS011;7826;49.784;9.934;2023-04-25T02:20:24;6.40;;;4.47;;
15449;SDS011;7826;49.784;9.934;2023-04-25T02:22:51;8.00;;;4.40;;
15449;SDS011;7826;49.784;9.934;2023-04-25T02:25:18;7.33;;;4.30;;
15449;SDS011;7826;49.784;9.934;2023-04-25T02:27:46;6.37;;;4.43;;
15449;SDS011;7826;49.784;9.934;2023-04-25T02:30:13;9.03;;;4.40;;
15449;SDS011;7826;49.784;9.934;2023-04-25T02:32:40;6.67;;;4.13;;
15449;SDS011;7826;49.784;9.934;2023-04-25T02:35:07;9.23;;;4.80;;
15449;SDS011;7826;49.784;9.934;2023-04-25T02:37:35;8.03;;;4.20;;
15449;SDS011;7826;49.784;9.934;2023-04-25T02:40:03;6.37;;;4.40;;
15449;SDS011;7826;49.784;9.934;2023-04-25T02:42:30;7.57;;;4.13;;
15449;SDS011;7826;49.784;9.934;2023-04-25T02:44:57;6.93;;;4.00;;
15449;SDS011;7826;49.784;9.934;2023-04-25T02:47:24;9.43;;;4.53;;
15449;SDS011;7826;49.784;9.934;2023-04-25T02:49:50;8.37;;;4.20;;
15449;SDS011;7826;49.784;9.934;2023-04-25T02:52:17;6.47;;;4.53;;
15449;SDS011;7826;49.784;9.934;2023-04-25T02:54:43;9.73;;;4.50;;
15449;SDS011;7826;49.784;9.934;2023-04-25T02:57:10;7.47;;;4.40;;
15449;SDS011;7826;49.784;9.934;2023-04-25T02:59:37;7.17;;;4.47;;
15449;SDS011;7826;49.784;9.934;2023-04-25T03:02:03;10.60;;;4.10;;
15449;SDS011;7826;49.784;9.934;2023-04-25T03:04:30;7.13;;;4.63;;
15449;SDS011;7826;49.784;9.934;2023-04-25T03:06:56;8.57;;;4.67;;
15449;SDS011;7826;49.784;9.934;2023-04-25T03:09:23;8.03;;;4.60;;
15449;SDS011;7826;49.784;9.934;2023-04-25T03:11:49;9.07;;;4.67;;
15449;SDS011;7826;49.784;9.934;2023-04-25T03:14:16;8.73;;;4.80;;
15449;SDS011;7826;49.784;9.934;2023-04-25T03:16:42;10.13;;;4.77;;
15449;SDS011;7826;49.784;9.934;2023-04-25T03:19:09;10.83;;;5.30;;
15449;SDS011;7826;49.784;9.934;2023-04-25T03:21:36;11.43;;;4.40;;
15449;SDS011;7826;49.784;9.934;2023-04-25T03:24:03;6.37;;;4.53;;
15449;SDS011;7826;49.784;9.934;2023-04-25T03:26:31;8.47;;;4.70;;
15449;SDS011;7826;49.784;9.934;2023-04-25T03:28:57;7.20;;;4.90;;
15449;SDS011;7826;49.784;9.934;2023-04-25T03:31:24;9.20;;;4.93;;
15449;SDS011;7826;49.784;9.934;2023-04-25T03:33:50;7.80;;;5.40;;
15449;SDS011;7826;49.784;9.934;2023-04-25T03:36:17;8.77;;;4.90;;
15449;SDS011;7826;49.784;9.934;2023-04-25T03:38:44;8.07;;;5.03;;
15449;SDS011;7826;49.784;9.934;2023-04-25T03:41:11;11.23;;;4.60;;
15449;SDS011;7826;49.784;9.934;2023-04-25T03:43:37;9.70;;;4.87;;
15449;SDS011;7826;49.784;9.934;2023-04-25T03:46:12;8.43;;;5.00;;
15449;SDS011;7826;49.784;9.934;2023-04-25T03:48:39;7.50;;;4.97;;
15449;SDS011;7826;49.784;9.934;2023-04-25T03:51:05;7.13;;;4.87;;
15449;SDS011;7826;49.784;9.934;2023-04-25T03:53:32;9.90;;;5.03;;
15449;SDS011;7826;49.784;9.934;2023-04-25T03:55:58;6.67;;;4.60;;
15449;SDS011;7826;49.784;9.934;2023-04-25T03:58:25;6.90;;;5.03;;
15449;SDS011;7826;49.784;9.934;2023-04-25T04:00:51;7.53;;;4.90;;
15449;SDS011;7826;49.784;9.934;2023-04-25T04:03:17;8.87;;;5.57;;
15449;SDS011;7826;49.784;9.934;2023-04-25T04:05:44;9.73;;;5.20;;
15449;SDS011;7826;49.784;9.934;2023-04-25T04:08:10;13.03;;;5.77;;
15449;SDS011;7826;49.784;9.934;2023-04-25T04:10:37;8.17;;;5.50;;
15449;SDS011;7826;49.784;9.934;2023-04-25T04:13:04;7.87;;;5.63;;
15449;SDS011;7826;49.784;9.934;2023-04-25T04:15:30;12.40;;;5.73;;
15449;SDS011;7826;49.784;9.934;2023-04-25T04:17:58;6.70;;;5.30;;
15449;SDS011;7826;49.784;9.934;2023-04-25T04:20:28;9.83;;;5.63;;
15449;SDS011;7826;49.784;9.934;2023-04-25T04:22:56;7.97;;;5.27;;
15449;SDS011;7826;49.784;9.934;2023-04-25T04:25:22;9.00;;;5.20;;
15449;SDS011;7826;49.784;9.934;2023-04-25T04:27:50;8.17;;;5.17;;
15449;SDS011;7826;49.784;9.934;2023-04-25T04:30:23;13.10;;;5.97;;
15449;SDS011;7826;49.784;9.934;2023-04-25T04:32:51;8.37;;;6.10;;
15449;SDS011;7826;49.784;9.934;2023-04-25T04:35:17;8.50;;;6.00;;
15449;SDS011;7826;49.784;9.934;2023-04-25T04:37:44;7.90;;;5.90;;
15449;SDS011;7826;49.784;9.934;2023-04-25T04:40:11;9.63;;;5.83;;
15449;SDS011;7826;49.784;9.934;2023-04-25T04:42:37;8.70;;;5.70;;
15449;SDS011;7826;49.784;9.934;2023-04-25T04:45:04;7.33;;;5.43;;
15449;SDS011;7826;49.784;9.934;2023-04-25T04:47:30;11.80;;;6.20;;
15449;SDS011;7826;49.784;9.934;2023-04-25T04:49:58;7.53;;;5.30;;
15449;SDS011;7826;49.784;9.934;2023-04-25T04:52:24;16.47;;;7.20;;
15449;SDS011;7826;49.784;9.934;2023-04-25T04:54:50;8.87;;;5.60;;
15449;SDS011;7826;49.784;9.934;2023-04-25T04:57:16;9.40;;;5.47;;
15449;SDS011;7826;49.784;9.934;2023-04-25T04:59:43;9.17;;;5.53;;
15449;SDS011;7826;49.784;9.934;2023-04-25T05:02:09;13.20;;;5.93;;
15449;SDS011;7826;49.784;9.934;2023-04-25T05:04:35;8.77;;;5.80;;
15449;SDS011;7826;49.784;9.934;2023-04-25T05:07:02;10.43;;;5.90;;
15449;SDS011;7826;49.784;9.934;2023-04-25T05:09:28;11.73;;;5.97;;
15449;SDS011;7826;49.784;9.934;2023-04-25T05:11:54;8.17;;;5.67;;
15449;SDS011;7826;49.784;9.934;2023-04-25T05:14:21;10.63;;;5.13;;
15449;SDS011;7826;49.784;9.934;2023-04-25T05:16:48;8.53;;;5.53;;
15449;SDS011;7826;49.784;9.934;2023-04-25T05:19:15;10.50;;;5.50;;
15449;SDS011;7826;49.784;9.934;2023-04-25T05:21:41;11.83;;;6.33;;
15449;SDS011;7826;49.784;9.934;2023-04-25T05:24:08;10.23;;;5.70;;
15449;SDS011;7826;49.784;9.934;2023-04-25T05:26:35;11.03;;;5.17;;
15449;SDS011;7826;49.784;9.934;2023-04-25T05:29:02;12.13;;;6.27;;
15449;SDS011;7826;49.784;9.934;2023-04-25T05:31:29;14.07;;;6.70;;
15449;SDS011;7826;49.784;9.934;2023-04-25T05:33:55;9.03;;;5.63;;
15449;SDS011;7826;49.784;9.934;2023-04-25T05:36:21;10.80;;;5.90;;
15449;SDS011;7826;49.784;9.934;2023-04-25T05:38:48;12.33;;;5.87;;
15449;SDS011;7826;49.784;9.934;2023-04-25T05:41:14;10.27;;;5.70;;
15449;SDS011;7826;49.784;9.934;2023-04-25T05:43:41;9.37;;;5.47;;
15449;SDS011;7826;49.784;9.934;2023-04-25T05:46:12;8.40;;;5.60;;
15449;SDS011;7826;49.784;9.934;2023-04-25T05:48:39;12.67;;;5.80;;
15449;SDS011;7826;49.784;9.934;2023-04-25T05:51:05;11.03;;;6.03;;
15449;SDS011;7826;49.784;9.934;2023-04-25T05:53:32;8.73;;;5.50;;
15449;SDS011;7826;49.784;9.934;2023-04-25T05:55:58;12.60;;;5.67;;
15449;SDS011;7826;49.784;9.934;2023-04-25T05:58:25;8.97;;;5.30;;
15449;SDS011;7826;49.784;9.934;2023-04-25T06:00:51;12.47;;;6.47;;
15449;SDS011;7826;49.784;9.934;2023-04-25T06:03:17;14.23;;;5.63;;
15449;SDS011;7826;49.784;9.934;2023-04-25T06:05:43;10.77;;;5.13;;
15449;SDS011;7826;49.784;9.934;2023-04-25T06:08:10;8.00;;;5.37;;
15449;SDS011;7826;49.784;9.934;2023-04-25T06:10:36;9.07;;;5.50;;
15449;SDS011;7826;49.784;9.934;2023-04-25T06:13:04;10.83;;;5.63;;
15449;SDS011;7826;49.784;9.934;2023-04-25T06:15:31;9.47;;;5.30;;
15449;SDS011;7826;49.784;9.934;2023-04-25T06:18:00;11.07;;;4.80;;
15449;SDS011;7826;49.784;9.934;2023-04-25T06:20:26;10.30;;;5.37;;
15449;SDS011;7826;49.784;9.934;2023-04-25T06:22:53;11.20;;;5.43;;
15449;SDS011;7826;49.784;9.934;2023-04-25T06:25:19;9.13;;;4.77;;
15449;SDS011;7826;49.784;9.934;2023-04-25T06:27:46;8.57;;;4.40;;
15449;SDS011;7826;49.784;9.934;2023-04-25T06:30:13;7.57;;;4.63;;
15449;SDS011;7826;49.784;9.934;2023-04-25T06:32:39;6.83;;;4.70;;
15449;SDS011;7826;49.784;9.934;2023-04-25T06:35:05;8.00;;;4.87;;
15449;SDS011;7826;49.784;9.934;2023-04-25T06:37:32;6.40;;;5.20;;
15449;SDS011;7826;49.784;9.934;2023-04-25T06:39:58;5.97;;;4.33;;
15449;SDS011;7826;49.784;9.934;2023-04-25T06:42:24;6.77;;;4.60;;
15449;SDS011;7826;49.784;9.934;2023-04-25T06:44:51;4.90;;;3.83;;
15449;SDS011;7826;49.784;9.934;2023-04-25T06:47:17;9.00;;;4.03;;
15449;SDS011;7826;49.784;9.934;2023-04-25T06:49:43;5.43;;;3.90;;
15449;SDS011;7826;49.784;9.934;2023-04-25T06:52:10;6.63;;;4.03;;
15449;SDS011;7826;49.784;9.934;2023-04-25T06:54:36;9.10;;;4.20;;
15449;SDS011;7826;49.784;9.934;2023-04-25T06:57:02;9.30;;;4.37;;
15449;SDS011;7826;49.784;9.934;2023-04-25T06:59:28;6.67;;;3.93;;
15449;SDS011;7826;49.784;9.934;2023-04-25T07:01:55;8.73;;;4.60;;
15449;SDS011;7826;49.784;9.934;2023-04-25T07:04:21;9.73;;;4.33;;
15449;SDS011;7826;49.784;9.934;2023-04-25T07:06:47;8.07;;;4.43;;
15449;SDS011;7826;49.784;9.934;2023-04-25T07:09:14;12.23;;;4.80;;
15449;SDS011;7826;49.784;9.934;2023-04-25T07:11:41;11.07;;;4.90;;
15449;SDS011;7826;49.784;9.934;2023-04-25T07:14:07;13.47;;;4.63;;
15449;SDS011;7826;49.784;9.934;2023-04-25T07:16:33;11.07;;;4.50;;
15449;SDS011;7826;49.784;9.934;2023-04-25T07:18:59;10.17;;;4.37;;
15449;SDS011;7826;49.784;9.934;2023-04-25T07:21:26;10.13;;;4.30;;
15449;SDS011;7826;49.784;9.934;2023-04-25T07:23:52;10.40;;;4.07;;
15449;SDS011;7826;49.784;9.934;2023-04-25T07:26:18;10.87;;;5.00;;
15449;SDS011;7826;49.784;9.934;2023-04-25T07:28:45;17.10;;;4.67;;
15449;SDS011;7826;49.784;9.934;2023-04-25T07:31:15;12.10;;;4.70;;
15449;SDS011;7826;49.784;9.934;2023-04-25T07:33:43;12.53;;;4.13;;
15449;SDS011;7826;49.784;9.934;2023-04-25T07:36:10;12.83;;;4.50;;
15449;SDS011;7826;49.784;9.934;2023-04-25T07:38:37;9.67;;;4.47;;
15449;SDS011;7826;49.784;9.934;2023-04-25T07:41:03;12.70;;;4.00;;
15449;SDS011;7826;49.784;9.934;2023-04-25T07:43:29;16.77;;;4.50;;
15449;SDS011;7826;49.784;9.934;2023-04-25T07:45:56;9.87;;;3.87;;
15449;SDS011;7826;49.784;9.934;2023-04-25T07:48:22;9.57;;;4.00;;
15449;SDS011;7826;49.784;9.934;2023-04-25T07:50:48;12.83;;;4.50;;
15449;SDS011;7826;49.784;9.934;2023-04-25T07:53:15;11.03;;;4.40;;
15449;SDS011;7826;49.784;9.934;2023-04-25T07:55:43;13.20;;;4.20;;
15449;SDS011;7826;49.784;9.934;2023-04-25T07:58:11;11.13;;;4.13;;
15449;SDS011;7826;49.784;9.934;2023-04-25T08:00:38;8.93;;;3.60;;
15449;SDS011;7826;49.784;9.934;2023-04-25T08:03:04;13.43;;;4.43;;
15449;SDS011;7826;49.784;9.934;2023-04-25T08:05:32;15.70;;;4.43;;
15449;SDS011;7826;49.784;9.934;2023-04-25T08:07:58;13.30;;;4.30;;
15449;SDS011;7826;49.784;9.934;2023-04-25T08:10:24;8.97;;;4.13;;
15449;SDS011;7826;49.784;9.934;2023-04-25T08:12:51;16.90;;;4.40;;
15449;SDS011;7826;49.784;9.934;2023-04-25T08:15:17;10.87;;;3.63;;
15449;SDS011;7826;49.784;9.934;2023-04-25T08:17:43;9.43;;;3.97;;
15449;SDS011;7826;49.784;9.934;2023-04-25T08:20:10;11.93;;;3.47;;
15449;SDS011;7826;49.784;9.934;2023-04-25T08:22:37;13.17;;;3.60;;
15449;SDS011;7826;49.784;9.934;2023-04-25T08:25:04;7.97;;;3.30;;
15449;SDS011;7826;49.784;9.934;2023-04-25T08:27:30;11.87;;;3.60;;
15449;SDS011;7826;49.784;9.934;2023-04-25T08:29:56;5.70;;;3.47;;
15449;SDS011;7826;49.784;9.934;2023-04-25T08:32:24;9.23;;;4.20;;
15449;SDS011;7826;49.784;9.934;2023-04-25T08:34:50;8.33;;;3.37;;
15449;SDS011;7826;49.784;9.934;2023-04-25T08:37:19;14.03;;;3.90;;
15449;SDS011;7826;49.784;9.934;2023-04-25T08:39:46;10.83;;;3.43;;
15449;SDS011;7826;49.784;9.934;2023-04-25T08:42:14;7.87;;;3.37;;
15449;SDS011;7826;49.784;9.934;2023-04-25T08:44:41;11.20;;;3.40;;
15449;SDS011;7826;49.784;9.934;2023-04-25T08:47:07;10.13;;;3.43;;
15449;SDS011;7826;49.784;9.934;2023-04-25T08:49:34;11.30;;;3.67;;
15449;SDS011;7826;49.784;9.934;2023-04-25T08:52:01;8.50;;;3.50;;
15449;SDS011;7826;49.784;9.934;2023-04-25T08:54:31;8.17;;;2.87;;
15449;SDS011;7826;49.784;9.934;2023-04-25T08:57:02;9.20;;;3.60;;
15449;SDS011;7826;49.784;9.934;2023-04-25T08:59:30;8.00;;;3.10;;
15449;SDS011;7826;49.784;9.934;2023-04-25T09:01:57;9.23;;;3.43;;
15449;SDS011;7826;49.784;9.934;2023-04-25T09:04:23;10.43;;;3.30;;
15449;SDS011;7826;49.784;9.934;2023-04-25T09:06:50;11.77;;;3.23;;
15449;SDS011;7826;49.784;9.934;2023-04-25T09:09:16;11.23;;;3.00;;
15449;SDS011;7826;49.784;9.934;2023-04-25T09:11:43;8.33;;;3.07;;
15449;SDS011;7826;49.784;9.934;2023-04-25T09:14:17;6.87;;;2.80;;
15449;SDS011;7826;49.784;9.934;2023-04-25T09:19:39;10.23;;;3.43;;
15449;SDS011;7826;49.784;9.934;2023-04-25T09:22:06;11.47;;;3.43;;
15449;SDS011;7826;49.784;9.934;2023-04-25T09:24:37;12.17;;;3.47;;
15449;SDS011;7826;49.784;9.934;2023-04-25T09:27:05;13.33;;;3.40;;
15449;SDS011;7826;49.784;9.934;2023-04-25T09:29:33;8.90;;;2.87;;
15449;SDS011;7826;49.784;9.934;2023-04-25T09:32:17;7.67;;;2.60;;
15449;SDS011;7826;49.784;9.934;2023-04-25T09:39:58;5.10;;;2.63;;
15449;SDS011;7826;49.784;9.934;2023-04-25T09:42:28;7.10;;;2.70;;
15449;SDS011;7826;49.784;9.934;2023-04-25T09:44:57;6.40;;;2.50;;
15449;SDS011;7826;49.784;9.934;2023-04-25T09:47:24;12.63;;;3.00;;
15449;SDS011;7826;49.784;9.934;2023-04-25T09:49:52;5.93;;;2.47;;
15449;SDS011;7826;49.784;9.934;2023-04-25T09:52:20;8.13;;;3.07;;
15449;SDS011;7826;49.784;9.934;2023-04-25T09:54:47;5.60;;;2.60;;
15449;SDS011;7826;49.784;9.934;2023-04-25T09:57:18;8.03;;;2.67;;
15449;SDS011;7826;49.784;9.934;2023-04-25T09:59:48;8.50;;;2.40;;
15449;SDS011;7826;49.784;9.934;2023-04-25T10:02:17;8.87;;;2.23;;
15449;SDS011;7826;49.784;9.934;2023-04-25T10:04:48;9.00;;;3.43;;
15449;SDS011;7826;49.784;9.934;2023-04-25T10:07:18;7.13;;;2.57;;
15449;SDS011;7826;49.784;9.934;2023-04-25T10:09:49;7.07;;;2.90;;
15449;SDS011;7826;49.784;9.934;2023-04-25T10:12:19;6.27;;;3.13;;
15449;SDS011;7826;49.784;9.934;2023-04-25T10:14:46;4.37;;;2.53;;
15449;SDS011;7826;49.784;9.934;2023-04-25T10:17:13;5.07;;;2.17;;
15449;SDS011;7826;49.784;9.934;2023-04-25T10:19:40;5.43;;;2.60;;
15449;SDS011;7826;49.784;9.934;2023-04-25T10:25:13;5.33;;;2.50;;
15449;SDS011;7826;49.784;9.934;2023-04-25T10:27:40;8.40;;;2.73;;
15449;SDS011;7826;49.784;9.934;2023-04-25T10:32:34;4.50;;;2.47;;
15449;SDS011;7826;49.784;9.934;2023-04-25T10:35:17;8.70;;;3.07;;
15449;SDS011;7826;49.784;9.934;2023-04-25T10:40:32;7.63;;;2.83;;
15449;SDS011;7826;49.784;9.934;2023-04-25T10:45:56;8.30;;;2.43;;
15449;SDS011;7826;49.784;9.934;2023-04-25T10:48:28;9.47;;;3.10;;
15449;SDS011;7826;49.784;9.934;2023-04-25T10:53:36;6.40;;;2.53;;
15449;SDS011;7826;49.784;9.934;2023-04-25T10:56:10;8.53;;;2.67;;
15449;SDS011;7826;49.784;9.934;2023-04-25T10:58:44;5.67;;;2.83;;
15449;SDS011;7826;49.784;9.934;2023-04-25T11:01:14;7.17;;;2.40;;
15449;SDS011;7826;49.784;9.934;2023-04-25T11:03:46;7.83;;;2.60;;
15449;SDS011;7826;49.784;9.934;2023-04-25T11:06:34;11.27;;;2.63;;
15449;SDS011;7826;49.784;9.934;2023-04-25T11:09:03;5.60;;;2.80;;
15449;SDS011;7826;49.784;9.934;2023-04-25T11:11:39;9.90;;;2.53;;
15449;SDS011;7826;49.784;9.934;2023-04-25T11:14:05;7.83;;;2.57;;
15449;SDS011;7826;49.784;9.934;2023-04-25T11:16:31;8.63;;;2.30;;
15449;SDS011;7826;49.784;9.934;2023-04-25T11:18:58;7.10;;;2.37;;
15449;SDS011;7826;49.784;9.934;2023-04-25T11:21:27;7.37;;;2.53;;
15449;SDS011;7826;49.784;9.934;2023-04-25T11:23:56;5.50;;;2.20;;
15449;SDS011;7826;49.784;9.934;2023-04-25T11:26:22;5.87;;;2.10;;
15449;SDS011;7826;49.784;9.934;2023-04-25T11:28:50;5.80;;;2.10;;
15449;SDS011;7826;49.784;9.934;2023-04-25T11:31:18;3.83;;;2.17;;
15449;SDS011;7826;49.784;9.934;2023-04-25T11:33:46;10.00;;;2.47;;
15449;SDS011;7826;49.784;9.934;2023-04-25T11:36:12;5.73;;;2.53;;
15449;SDS011;7826;49.784;9.934;2023-04-25T11:38:39;7.17;;;2.40;;
15449;SDS011;7826;49.784;9.934;2023-04-25T11:41:06;11.00;;;2.50;;
15449;SDS011;7826;49.784;9.934;2023-04-25T11:43:32;9.50;;;2.23;;
15449;SDS011;7826;49.784;9.934;2023-04-25T11:45:58;7.10;;;3.23;;
15449;SDS011;7826;49.784;9.934;2023-04-25T11:48:25;4.67;;;2.07;;
15449;SDS011;7826;49.784;9.934;2023-04-25T11:50:51;4.30;;;2.10;;
15449;SDS011;7826;49.784;9.934;2023-04-25T11:53:19;4.43;;;1.90;;
15449;SDS011;7826;49.784;9.934;2023-04-25T11:55:45;2.83;;;1.90;;
15449;SDS011;7826;49.784;9.934;2023-04-25T11:58:11;4.03;;;2.00;;
15449;SDS011;7826;49.784;9.934;2023-04-25T12:00:41;6.77;;;2.33;;
15449;SDS011;7826;49.784;9.934;2023-04-25T12:03:08;3.03;;;1.67;;
15449;SDS011;7826;49.784;9.934;2023-04-25T12:05:35;6.33;;;2.00;;
15449;SDS011;7826;49.784;9.934;2023-04-25T12:08:12;3.67;;;2.00;;
15449;SDS011;7826;49.784;9.934;2023-04-25T12:10:41;7.00;;;2.30;;
15449;SDS011;7826;49.784;9.934;2023-04-25T12:13:24;5.33;;;2.13;;
15449;SDS011;7826;49.784;9.934;2023-04-25T12:15:54;4.60;;;2.20;;
15449;SDS011;7826;49.784;9.934;2023-04-25T12:18:22;4.90;;;2.50;;
15449;SDS011;7826;49.784;9.934;2023-04-25T12:20:53;6.03;;;2.00;;
15449;SDS011;7826;49.784;9.934;2023-04-25T12:23:26;4.63;;;2.13;;
15449;SDS011;7826;49.784;9.934;2023-04-25T12:25:54;6.30;;;2.40;;
15449;SDS011;7826;49.784;9.934;2023-04-25T12:28:22;7.30;;;2.73;;
15449;SDS011;7826;49.784;9.934;2023-04-25T12:30:59;5.20;;;2.17;;
15449;SDS011;7826;49.784;9.934;2023-04-25T12:33:28;7.23;;;2.53;;
15449;SDS011;7826;49.784;9.934;2023-04-25T12:35:56;6.27;;;2.60;;
15449;SDS011;7826;49.784;9.934;2023-04-25T12:38:27;4.90;;;2.67;;
15449;SDS011;7826;49.784;9.934;2023-04-25T12:40:55;5.23;;;2.40;;
15449;SDS011;7826;49.784;9.934;2023-04-25T12:43:23;5.63;;;2.47;;
15449;SDS011;7826;49.784;9.934;2023-04-25T12:45:50;6.07;;;2.40;;
15449;SDS011;7826;49.784;9.934;2023-04-25T12:48:18;4.40;;;2.20;;
15449;SDS011;7826;49.784;9.934;2023-04-25T12:50:45;5.50;;;2.60;;
15449;SDS011;7826;49.784;9.934;2023-04-25T12:53:15;4.97;;;2.40;;
15449;SDS011;7826;49.784;9.934;2023-04-25T12:55:45;8.63;;;2.83;;
15449;SDS011;7826;49.784;9.934;2023-04-25T12:58:12;10.20;;;2.90;;
15449;SDS011;7826;49.784;9.934;2023-04-25T13:00:40;7.07;;;2.90;;
15449;SDS011;7826;49.784;9.934;2023-04-25T13:03:06;7.93;;;2.53;;
15449;SDS011;7826;49.784;9.934;2023-04-25T13:05:32;6.17;;;2.80;;
15449;SDS011;7826;49.784;9.934;2023-04-25T13:07:59;5.47;;;2.70;;
15449;SDS011;7826;49.784;9.934;2023-04-25T13:10:25;6.80;;;2.40;;
15449;SDS011;7826;49.784;9.934;2023-04-25T13:12:51;5.30;;;2.47;;
15449;SDS011;7826;49.784;9.934;2023-04-25T13:15:17;6.23;;;2.70;;
15449;SDS011;7826;49.784;9.934;2023-04-25T13:17:44;8.40;;;2.60;;
15449;SDS011;7826;49.784;9.934;2023-04-25T13:20:10;5.37;;;2.60;;
15449;SDS011;7826;49.784;9.934;2023-04-25T13:22:37;5.33;;;2.43;;
15449;SDS011;7826;49.784;9.934;2023-04-25T13:25:04;6.80;;;2.90;;
15449;SDS011;7826;49.784;9.934;2023-04-25T13:27:32;4.40;;;2.60;;
15449;SDS011;7826;49.784;9.934;2023-04-25T13:29:59;5.33;;;2.80;;
15449;SDS011;7826;49.784;9.934;2023-04-25T13:32:27;4.60;;;2.40;;
15449;SDS011;7826;49.784;9.934;2023-04-25T13:34:53;6.50;;;2.53;;
15449;SDS011;7826;49.784;9.934;2023-04-25T13:37:19;5.87;;;2.63;;
15449;SDS011;7826;49.784;9.934;2023-04-25T13:39:46;5.97;;;2.70;;
15449;SDS011;7826;49.784;9.934;2023-04-25T13:42:12;6.23;;;3.20;;
15449;SDS011;7826;49.784;9.934;2023-04-25T13:44:38;4.67;;;2.40;;
15449;SDS011;7826;49.784;9.934;2023-04-25T13:47:04;4.67;;;2.53;;
15449;SDS011;7826;49.784;9.934;2023-04-25T13:49:31;5.37;;;2.67;;
15449;SDS011;7826;49.784;9.934;2023-04-25T13:51:57;7.27;;;2.57;;
15449;SDS011;7826;49.784;9.934;2023-04-25T13:54:23;7.17;;;3.33;;
15449;SDS011;7826;49.784;9.934;2023-04-25T13:56:49;6.30;;;2.50;;
15449;SDS011;7826;49.784;9.934;2023-04-25T13:59:16;5.27;;;2.63;;
15449;SDS011;7826;49.784;9.934;2023-04-25T14:01:42;6.60;;;2.83;;
15449;SDS011;7826;49.784;9.934;2023-04-25T14:04:09;6.53;;;2.30;;
15449;SDS011;7826;49.784;9.934;2023-04-25T14:06:35;4.77;;;2.67;;
15449;SDS011;7826;49.784;9.934;2023-04-25T14:09:02;6.30;;;3.17;;
15449;SDS011;7826;49.784;9.934;2023-04-25T14:11:29;5.27;;;2.87;;
15449;SDS011;7826;49.784;9.934;2023-04-25T14:13:56;5.77;;;2.77;;
15449;SDS011;7826;49.784;9.934;2023-04-25T14:16:22;12.20;;;3.20;;
15449;SDS011;7826;49.784;9.934;2023-04-25T14:18:48;9.73;;;2.90;;
15449;SDS011;7826;49.784;9.934;2023-04-25T14:21:15;6.17;;;3.10;;
15449;SDS011;7826;49.784;9.934;2023-04-25T14:23:41;5.53;;;2.40;;
15449;SDS011;7826;49.784;9.934;2023-04-25T14:26:07;5.63;;;2.83;;
15449;SDS011;7826;49.784;9.934;2023-04-25T14:28:38;7.03;;;3.10;;
15449;SDS011;7826;49.784;9.934;2023-04-25T14:31:04;6.60;;;2.10;;
15449;SDS011;7826;49.784;9.934;2023-04-25T14:33:30;4.17;;;1.80;;
15449;SDS011;7826;49.784;9.934;2023-04-25T14:35:56;5.63;;;2.20;;
15449;SDS011;7826;49.784;9.934;2023-04-25T14:38:22;5.93;;;2.10;;
15449;SDS011;7826;49.784;9.934;2023-04-25T14:40:51;6.27;;;2.60;;
15449;SDS011;7826;49.784;9.934;2023-04-25T14:43:17;6.73;;;2.30;;
15449;SDS011;7826;49.784;9.934;2023-04-25T14:45:44;5.87;;;2.13;;
15449;SDS011;7826;49.784;9.934;2023-04-25T14:48:10;4.87;;;2.60;;
15449;SDS011;7826;49.784;9.934;2023-04-25T14:50:37;10.43;;;2.43;;
15449;SDS011;7826;49.784;9.934;2023-04-25T14:53:03;7.20;;;2.40;;
15449;SDS011;7826;49.784;9.934;2023-04-25T14:55:30;6.27;;;2.37;;
15449;SDS011;7826;49.784;9.934;2023-04-25T14:57:56;5.30;;;2.40;;
15449;SDS011;7826;49.784;9.934;2023-04-25T15:00:23;6.30;;;2.30;;
15449;SDS011;7826;49.784;9.934;2023-04-25T15:02:50;4.57;;;2.77;;
15449;SDS011;7826;49.784;9.934;2023-04-25T15:05:17;5.73;;;2.07;;
15449;SDS011;7826;49.784;9.934;2023-04-25T15:07:44;5.73;;;2.00;;
15449;SDS011;7826;49.784;9.934;2023-04-25T15:10:10;6.30;;;2.30;;
15449;SDS011;7826;49.784;9.934;2023-04-25T15:12:41;3.63;;;1.80;;
15449;SDS011;7826;49.784;9.934;2023-04-25T15:15:11;5.00;;;1.87;;
15449;SDS011;7826;49.784;9.934;2023-04-25T15:17:38;4.77;;;2.20;;
15449;SDS011;7826;49.784;9.934;2023-04-25T15:20:11;3.63;;;2.00;;